sensor_id;sensor_type;location;lat;lon;timestamp;temperature;humidity
2967;DHT22;1493;51.496;7.210;2022-09-09T00:00:18;16.20;99.90
2967;DHT22;1493;51.496;7.210;2022-09-09T00:02:52;16.20;99.90
2967;DHT22;1493;51.496;7.210;2022-09-09T00:05:26;16.20;99.90
2967;DHT22;1493;51.496;7.210;2022-09-09T00:07:59;16.10;99.90
2967;DHT22;1493;51.496;7.210;2022-09-09T00:10:32;16.20;99.90
2967;DHT22;1493;51.496;7.210;2022-09-09T00:13:05;16.20;99.90
2967;DHT22;1493;51.496;7.210;2022-09-09T00:15:40;16.20;99.90
2967;DHT22;1493;51.496;7.210;2022-09-09T00:18:16;16.10;99.90
2967;DHT22;1493;51.496;7.210;2022-09-09T00:20:49;16.10;99.90
2967;DHT22;1493;51.496;7.210;2022-09-09T00:23:24;16.10;99.90
2967;DHT22;1493;51.496;7.210;2022-09-09T00:25:57;16.10;99.90
2967;DHT22;1493;51.496;7.210;2022-09-09T00:28:27;16.10;99.90
2967;DHT22;1493;51.496;7.210;2022-09-09T00:31:00;16.10;99.90
2967;DHT22;1493;51.496;7.210;2022-09-09T00:33:30;16.10;99.90
2967;DHT22;1493;51.496;7.210;2022-09-09T00:35:58;16.10;99.90
2967;DHT22;1493;51.496;7.210;2022-09-09T00:38:30;16.10;99.90
2967;DHT22;1493;51.496;7.210;2022-09-09T00:41:05;16.10;99.90
2967;DHT22;1493;51.496;7.210;2022-09-09T00:43:37;16.20;99.90
2967;DHT22;1493;51.496;7.210;2022-09-09T00:46:26;16.10;99.90
2967;DHT22;1493;51.496;7.210;2022-09-09T00:49:04;16.10;99.90
2967;DHT22;1493;51.496;7.210;2022-09-09T00:51:44;16.10;99.90
2967;DHT22;1493;51.496;7.210;2022-09-09T00:54:36;16.20;99.90
2967;DHT22;1493;51.496;7.210;2022-09-09T00:57:25;16.20;99.90
2967;DHT22;1493;51.496;7.210;2022-09-09T00:59:57;16.10;99.90
2967;DHT22;1493;51.496;7.210;2022-09-09T01:02:28;16.20;99.90
2967;DHT22;1493;51.496;7.210;2022-09-09T01:05:04;16.20;99.90
2967;DHT22;1493;51.496;7.210;2022-09-09T01:07:32;16.20;99.90
2967;DHT22;1493;51.496;7.210;2022-09-09T01:10:00;16.10;99.90
2967;DHT22;1493;51.496;7.210;2022-09-09T01:12:35;16.20;99.90
2967;DHT22;1493;51.496;7.210;2022-09-09T01:15:09;16.20;99.90
2967;DHT22;1493;51.496;7.210;2022-09-09T01:17:46;16.20;99.90
2967;DHT22;1493;51.496;7.210;2022-09-09T01:20:19;16.30;99.90
2967;DHT22;1493;51.496;7.210;2022-09-09T01:22:58;16.30;99.90
2967;DHT22;1493;51.496;7.210;2022-09-09T01:28:21;16.30;99.90
2967;DHT22;1493;51.496;7.210;2022-09-09T01:30:49;16.30;99.90
2967;DHT22;1493;51.496;7.210;2022-09-09T01:33:17;16.30;99.90
2967;DHT22;1493;51.496;7.210;2022-09-09T01:35:48;16.40;99.90
2967;DHT22;1493;51.496;7.210;2022-09-09T01:38:17;16.40;99.90
2967;DHT22;1493;51.496;7.210;2022-09-09T01:40:44;16.40;99.90
2967;DHT22;1493;51.496;7.210;2022-09-09T01:43:11;16.30;99.90
2967;DHT22;1493;51.496;7.210;2022-09-09T01:45:41;16.30;99.90
2967;DHT22;1493;51.496;7.210;2022-09-09T01:48:09;16.30;99.90
2967;DHT22;1493;51.496;7.210;2022-09-09T01:50:35;16.30;99.90
2967;DHT22;1493;51.496;7.210;2022-09-09T01:53:02;16.30;99.90
2967;DHT22;1493;51.496;7.210;2022-09-09T01:55:32;16.30;99.90
2967;DHT22;1493;51.496;7.210;2022-09-09T01:58:11;16.30;99.90
2967;DHT22;1493;51.496;7.210;2022-09-09T02:00:51;16.40;99.90
2967;DHT22;1493;51.496;7.210;2022-09-09T02:03:25;16.50;99.90
2967;DHT22;1493;51.496;7.210;2022-09-09T02:06:00;16.50;99.90
2967;DHT22;1493;51.496;7.210;2022-09-09T02:08:33;16.50;99.90
2967;DHT22;1493;51.496;7.210;2022-09-09T02:11:06;16.50;99.90
2967;DHT22;1493;51.496;7.210;2022-09-09T02:13:36;16.50;99.90
2967;DHT22;1493;51.496;7.210;2022-09-09T02:16:07;16.60;99.90
2967;DHT22;1493;51.496;7.210;2022-09-09T02:18:38;16.60;99.90
2967;DHT22;1493;51.496;7.210;2022-09-09T02:21:07;16.60;99.90
2967;DHT22;1493;51.496;7.210;2022-09-09T02:23:36;16.60;99.90
2967;DHT22;1493;51.496;7.210;2022-09-09T02:26:06;16.50;99.90
2967;DHT22;1493;51.496;7.210;2022-09-09T02:28:35;16.50;99.90
2967;DHT22;1493;51.496;7.210;2022-09-09T02:31:05;16.50;99.90
2967;DHT22;1493;51.496;7.210;2022-09-09T02:33:36;16.50;99.90
2967;DHT22;1493;51.496;7.210;2022-09-09T02:36:06;16.50;99.90
2967;DHT22;1493;51.496;7.210;2022-09-09T02:38:37;16.50;99.90
2967;DHT22;1493;51.496;7.210;2022-09-09T02:41:06;16.60;99.90
2967;DHT22;1493;51.496;7.210;2022-09-09T02:43:33;16.50;99.90
2967;DHT22;1493;51.496;7.210;2022-09-09T02:46:08;16.60;99.90
2967;DHT22;1493;51.496;7.210;2022-09-09T02:48:43;16.50;99.90
2967;DHT22;1493;51.496;7.210;2022-09-09T02:51:16;16.50;99.90
2967;DHT22;1493;51.496;7.210;2022-09-09T02:53:50;16.50;99.90
2967;DHT22;1493;51.496;7.210;2022-09-09T02:56:22;16.50;99.90
2967;DHT22;1493;51.496;7.210;2022-09-09T02:58:51;16.50;99.90
2967;DHT22;1493;51.496;7.210;2022-09-09T03:01:19;16.60;99.90
2967;DHT22;1493;51.496;7.210;2022-09-09T03:03:46;16.60;99.90
2967;DHT22;1493;51.496;7.210;2022-09-09T03:06:13;16.60;99.90
2967;DHT22;1493;51.496;7.210;2022-09-09T03:08:40;16.70;99.90
2967;DHT22;1493;51.496;7.210;2022-09-09T03:11:07;16.70;99.90
2967;DHT22;1493;51.496;7.210;2022-09-09T03:13:35;16.70;99.90
2967;DHT22;1493;51.496;7.210;2022-09-09T03:16:02;16.80;99.90
2967;DHT22;1493;51.496;7.210;2022-09-09T03:18:31;16.80;99.90
2967;DHT22;1493;51.496;7.210;2022-09-09T03:20:59;16.70;99.90
2967;DHT22;1493;51.496;7.210;2022-09-09T03:23:26;16.70;99.90
2967;DHT22;1493;51.496;7.210;2022-09-09T03:25:53;16.70;99.90
2967;DHT22;1493;51.496;7.210;2022-09-09T03:28:22;16.70;99.90
2967;DHT22;1493;51.496;7.210;2022-09-09T03:30:58;16.70;99.90
2967;DHT22;1493;51.496;7.210;2022-09-09T03:33:25;16.80;99.90
2967;DHT22;1493;51.496;7.210;2022-09-09T03:35:53;16.80;99.90
2967;DHT22;1493;51.496;7.210;2022-09-09T03:38:22;16.70;99.90
2967;DHT22;1493;51.496;7.210;2022-09-09T03:40:50;16.70;99.90
2967;DHT22;1493;51.496;7.210;2022-09-09T03:43:20;16.70;99.90
2967;DHT22;1493;51.496;7.210;2022-09-09T03:45:48;16.70;99.90
2967;DHT22;1493;51.496;7.210;2022-09-09T03:48:15;16.70;99.90
2967;DHT22;1493;51.496;7.210;2022-09-09T03:50:44;16.70;99.90
2967;DHT22;1493;51.496;7.210;2022-09-09T03:53:14;16.70;99.90
2967;DHT22;1493;51.496;7.210;2022-09-09T03:55:44;16.50;99.90
2967;DHT22;1493;51.496;7.210;2022-09-09T03:58:11;16.60;99.90
2967;DHT22;1493;51.496;7.210;2022-09-09T04:00:38;16.60;99.90
2967;DHT22;1493;51.496;7.210;2022-09-09T04:03:07;16.50;99.90
2967;DHT22;1493;51.496;7.210;2022-09-09T04:05:34;16.50;99.90
2967;DHT22;1493;51.496;7.210;2022-09-09T04:08:05;16.40;99.90
2967;DHT22;1493;51.496;7.210;2022-09-09T04:10:34;16.40;99.90
2967;DHT22;1493;51.496;7.210;2022-09-09T04:13:02;16.40;99.90
2967;DHT22;1493;51.496;7.210;2022-09-09T04:15:29;16.40;99.90
2967;DHT22;1493;51.496;7.210;2022-09-09T04:17:56;16.50;99.90
2967;DHT22;1493;51.496;7.210;2022-09-09T04:20:23;16.50;99.90
2967;DHT22;1493;51.496;7.210;2022-09-09T04:22:50;16.50;99.90
2967;DHT22;1493;51.496;7.210;2022-09-09T04:25:17;16.50;99.90
2967;DHT22;1493;51.496;7.210;2022-09-09T04:27:45;16.50;99.90
2967;DHT22;1493;51.496;7.210;2022-09-09T04:30:13;17.50;99.90
2967;DHT22;1493;51.496;7.210;2022-09-09T04:32:39;19.00;99.90
2967;DHT22;1493;51.496;7.210;2022-09-09T04:35:07;19.20;99.90
2967;DHT22;1493;51.496;7.210;2022-09-09T04:37:34;18.80;99.90
2967;DHT22;1493;51.496;7.210;2022-09-09T04:40:01;18.40;99.90
2967;DHT22;1493;51.496;7.210;2022-09-09T04:42:28;18.00;99.90
2967;DHT22;1493;51.496;7.210;2022-09-09T04:44:56;17.70;99.90
2967;DHT22;1493;51.496;7.210;2022-09-09T04:47:23;17.50;99.90
2967;DHT22;1493;51.496;7.210;2022-09-09T04:49:50;17.30;99.90
2967;DHT22;1493;51.496;7.210;2022-09-09T04:52:17;17.20;99.90
2967;DHT22;1493;51.496;7.210;2022-09-09T04:54:44;17.10;99.90
2967;DHT22;1493;51.496;7.210;2022-09-09T04:57:11;17.00;99.90
2967;DHT22;1493;51.496;7.210;2022-09-09T04:59:38;16.90;99.90
2967;DHT22;1493;51.496;7.210;2022-09-09T05:02:07;16.90;99.90
2967;DHT22;1493;51.496;7.210;2022-09-09T05:04:34;16.80;99.90
2967;DHT22;1493;51.496;7.210;2022-09-09T05:07:00;16.70;99.90
2967;DHT22;1493;51.496;7.210;2022-09-09T05:09:27;16.70;99.90
2967;DHT22;1493;51.496;7.210;2022-09-09T05:11:54;16.70;99.90
2967;DHT22;1493;51.496;7.210;2022-09-09T05:14:21;16.70;99.90
2967;DHT22;1493;51.496;7.210;2022-09-09T05:16:48;16.70;99.90
2967;DHT22;1493;51.496;7.210;2022-09-09T05:19:41;16.80;99.90
2967;DHT22;1493;51.496;7.210;2022-09-09T05:22:18;16.80;99.90
2967;DHT22;1493;51.496;7.210;2022-09-09T05:24:45;16.80;99.90
2967;DHT22;1493;51.496;7.210;2022-09-09T05:27:12;16.70;99.90
2967;DHT22;1493;51.496;7.210;2022-09-09T05:29:39;16.80;99.90
2967;DHT22;1493;51.496;7.210;2022-09-09T05:32:06;16.80;99.90
2967;DHT22;1493;51.496;7.210;2022-09-09T05:34:33;16.80;99.90
2967;DHT22;1493;51.496;7.210;2022-09-09T05:37:02;16.90;99.90
2967;DHT22;1493;51.496;7.210;2022-09-09T05:39:33;16.90;99.90
2967;DHT22;1493;51.496;7.210;2022-09-09T05:42:07;16.80;99.90
2967;DHT22;1493;51.496;7.210;2022-09-09T05:44:34;16.80;99.90
2967;DHT22;1493;51.496;7.210;2022-09-09T05:47:01;16.90;99.90
2967;DHT22;1493;51.496;7.210;2022-09-09T05:49:28;16.90;99.90
2967;DHT22;1493;51.496;7.210;2022-09-09T05:51:54;16.80;99.90
2967;DHT22;1493;51.496;7.210;2022-09-09T05:54:23;16.80;99.90
2967;DHT22;1493;51.496;7.210;2022-09-09T05:56:49;16.90;99.90
2967;DHT22;1493;51.496;7.210;2022-09-09T05:59:18;16.90;99.90
2967;DHT22;1493;51.496;7.210;2022-09-09T06:01:48;16.90;99.90
2967;DHT22;1493;51.496;7.210;2022-09-09T06:04:14;16.90;99.90
2967;DHT22;1493;51.496;7.210;2022-09-09T06:06:41;16.90;99.90
2967;DHT22;1493;51.496;7.210;2022-09-09T06:09:09;16.90;99.90
2967;DHT22;1493;51.496;7.210;2022-09-09T06:11:42;16.90;99.90
2967;DHT22;1493;51.496;7.210;2022-09-09T06:14:09;17.00;99.90
2967;DHT22;1493;51.496;7.210;2022-09-09T06:16:38;16.90;99.90
2967;DHT22;1493;51.496;7.210;2022-09-09T06:19:04;17.00;99.90
2967;DHT22;1493;51.496;7.210;2022-09-09T06:21:33;17.10;99.90
2967;DHT22;1493;51.496;7.210;2022-09-09T06:24:03;17.10;99.90
2967;DHT22;1493;51.496;7.210;2022-09-09T06:26:34;17.10;99.90
2967;DHT22;1493;51.496;7.210;2022-09-09T06:29:03;17.20;99.90
2967;DHT22;1493;51.496;7.210;2022-09-09T06:31:32;17.20;99.90
2967;DHT22;1493;51.496;7.210;2022-09-09T06:34:04;17.30;99.90
2967;DHT22;1493;51.496;7.210;2022-09-09T06:36:37;17.30;99.90
2967;DHT22;1493;51.496;7.210;2022-09-09T06:39:04;17.20;99.90
2967;DHT22;1493;51.496;7.210;2022-09-09T06:41:32;17.30;99.90
2967;DHT22;1493;51.496;7.210;2022-09-09T06:43:59;17.40;99.90
2967;DHT22;1493;51.496;7.210;2022-09-09T06:46:30;17.40;99.90
2967;DHT22;1493;51.496;7.210;2022-09-09T06:48:59;17.50;99.90
2967;DHT22;1493;51.496;7.210;2022-09-09T06:51:29;17.50;99.90
2967;DHT22;1493;51.496;7.210;2022-09-09T06:54:02;17.50;99.90
2967;DHT22;1493;51.496;7.210;2022-09-09T06:56:30;17.60;99.90
2967;DHT22;1493;51.496;7.210;2022-09-09T06:59:01;17.50;99.90
2967;DHT22;1493;51.496;7.210;2022-09-09T07:01:34;17.60;99.90
2967;DHT22;1493;51.496;7.210;2022-09-09T07:04:02;17.60;99.90
2967;DHT22;1493;51.496;7.210;2022-09-09T07:06:34;17.60;99.90
2967;DHT22;1493;51.496;7.210;2022-09-09T07:09:10;17.60;99.90
2967;DHT22;1493;51.496;7.210;2022-09-09T07:11:44;17.70;99.90
2967;DHT22;1493;51.496;7.210;2022-09-09T07:14:11;17.80;99.90
2967;DHT22;1493;51.496;7.210;2022-09-09T07:16:41;17.90;99.90
2967;DHT22;1493;51.496;7.210;2022-09-09T07:19:08;17.90;99.90
2967;DHT22;1493;51.496;7.210;2022-09-09T07:21:34;17.90;99.90
2967;DHT22;1493;51.496;7.210;2022-09-09T07:24:01;18.10;99.90
2967;DHT22;1493;51.496;7.210;2022-09-09T07:26:30;18.10;99.90
2967;DHT22;1493;51.496;7.210;2022-09-09T07:28:57;18.00;99.90
2967;DHT22;1493;51.496;7.210;2022-09-09T07:31:26;17.90;99.90
2967;DHT22;1493;51.496;7.210;2022-09-09T07:33:54;18.10;99.90
2967;DHT22;1493;51.496;7.210;2022-09-09T07:36:23;18.20;99.90
2967;DHT22;1493;51.496;7.210;2022-09-09T07:38:52;18.40;99.90
2967;DHT22;1493;51.496;7.210;2022-09-09T07:41:21;18.40;99.90
2967;DHT22;1493;51.496;7.210;2022-09-09T07:43:49;18.20;99.90
2967;DHT22;1493;51.496;7.210;2022-09-09T07:46:17;18.30;99.90
2967;DHT22;1493;51.496;7.210;2022-09-09T07:48:45;18.40;99.90
2967;DHT22;1493;51.496;7.210;2022-09-09T07:51:15;18.40;99.90
2967;DHT22;1493;51.496;7.210;2022-09-09T07:53:44;18.30;99.90
2967;DHT22;1493;51.496;7.210;2022-09-09T07:56:12;18.20;99.90
2967;DHT22;1493;51.496;7.210;2022-09-09T07:58:40;18.30;99.90
2967;DHT22;1493;51.496;7.210;2022-09-09T08:01:09;18.30;99.90
2967;DHT22;1493;51.496;7.210;2022-09-09T08:03:36;18.40;99.90
2967;DHT22;1493;51.496;7.210;2022-09-09T08:06:04;18.50;99.90
2967;DHT22;1493;51.496;7.210;2022-09-09T08:08:34;18.50;99.90
2967;DHT22;1493;51.496;7.210;2022-09-09T08:11:05;18.50;99.90
2967;DHT22;1493;51.496;7.210;2022-09-09T08:13:33;18.50;99.90
2967;DHT22;1493;51.496;7.210;2022-09-09T08:16:05;18.50;99.90
2967;DHT22;1493;51.496;7.210;2022-09-09T08:18:32;18.70;99.90
2967;DHT22;1493;51.496;7.210;2022-09-09T08:21:05;18.70;99.90
2967;DHT22;1493;51.496;7.210;2022-09-09T08:23:35;18.70;99.90
2967;DHT22;1493;51.496;7.210;2022-09-09T08:26:07;18.80;99.90
2967;DHT22;1493;51.496;7.210;2022-09-09T08:28:34;18.80;99.90
2967;DHT22;1493;51.496;7.210;2022-09-09T08:31:09;18.70;99.90
2967;DHT22;1493;51.496;7.210;2022-09-09T08:33:37;18.90;99.90
2967;DHT22;1493;51.496;7.210;2022-09-09T08:36:05;18.80;99.90
2967;DHT22;1493;51.496;7.210;2022-09-09T08:38:35;18.90;99.90
2967;DHT22;1493;51.496;7.210;2022-09-09T08:41:17;18.80;99.90
2967;DHT22;1493;51.496;7.210;2022-09-09T08:43:50;18.70;99.90
2967;DHT22;1493;51.496;7.210;2022-09-09T08:46:22;18.70;99.90
2967;DHT22;1493;51.496;7.210;2022-09-09T08:48:55;18.70;99.90
2967;DHT22;1493;51.496;7.210;2022-09-09T08:51:25;18.80;99.90
2967;DHT22;1493;51.496;7.210;2022-09-09T08:54:04;19.00;99.90
2967;DHT22;1493;51.496;7.210;2022-09-09T08:56:32;19.10;99.90
2967;DHT22;1493;51.496;7.210;2022-09-09T08:59:02;19.20;99.90
2967;DHT22;1493;51.496;7.210;2022-09-09T09:01:58;19.50;99.90
2967;DHT22;1493;51.496;7.210;2022-09-09T09:04:37;19.70;99.90
2967;DHT22;1493;51.496;7.210;2022-09-09T09:07:15;19.90;99.90
2967;DHT22;1493;51.496;7.210;2022-09-09T09:09:55;19.90;99.90
2967;DHT22;1493;51.496;7.210;2022-09-09T09:12:28;20.10;99.90
2967;DHT22;1493;51.496;7.210;2022-09-09T09:14:55;20.30;99.90
2967;DHT22;1493;51.496;7.210;2022-09-09T09:17:25;20.40;99.90
2967;DHT22;1493;51.496;7.210;2022-09-09T09:19:55;20.30;99.90
2967;DHT22;1493;51.496;7.210;2022-09-09T09:22:29;20.10;99.90
2967;DHT22;1493;51.496;7.210;2022-09-09T09:25:04;19.80;99.90
2967;DHT22;1493;51.496;7.210;2022-09-09T09:27:40;20.10;99.90
2967;DHT22;1493;51.496;7.210;2022-09-09T09:30:14;20.10;99.90
2967;DHT22;1493;51.496;7.210;2022-09-09T09:32:47;20.10;99.90
2967;DHT22;1493;51.496;7.210;2022-09-09T09:35:16;20.30;99.90
2967;DHT22;1493;51.496;7.210;2022-09-09T09:37:42;20.50;99.90
2967;DHT22;1493;51.496;7.210;2022-09-09T09:40:13;20.60;99.90
2967;DHT22;1493;51.496;7.210;2022-09-09T09:42:49;20.80;99.90
2967;DHT22;1493;51.496;7.210;2022-09-09T09:45:25;21.00;99.90
2967;DHT22;1493;51.496;7.210;2022-09-09T09:48:02;21.60;99.90
2967;DHT22;1493;51.496;7.210;2022-09-09T09:50:30;21.90;99.90
2967;DHT22;1493;51.496;7.210;2022-09-09T09:53:01;22.10;99.90
2967;DHT22;1493;51.496;7.210;2022-09-09T09:55:32;22.20;99.90
2967;DHT22;1493;51.496;7.210;2022-09-09T09:58:04;22.20;99.90
2967;DHT22;1493;51.496;7.210;2022-09-09T10:00:31;22.20;99.90
2967;DHT22;1493;51.496;7.210;2022-09-09T10:03:00;22.10;99.90
2967;DHT22;1493;51.496;7.210;2022-09-09T10:05:28;22.40;99.90
2967;DHT22;1493;51.496;7.210;2022-09-09T10:08:10;22.50;99.90
2967;DHT22;1493;51.496;7.210;2022-09-09T10:10:57;22.00;99.90
2967;DHT22;1493;51.496;7.210;2022-09-09T10:13:30;21.90;99.90
2967;DHT22;1493;51.496;7.210;2022-09-09T10:16:13;21.80;99.90
2967;DHT22;1493;51.496;7.210;2022-09-09T10:18:52;21.10;99.90
2967;DHT22;1493;51.496;7.210;2022-09-09T10:21:28;21.10;99.90
2967;DHT22;1493;51.496;7.210;2022-09-09T10:24:10;20.90;99.90
2967;DHT22;1493;51.496;7.210;2022-09-09T10:26:46;20.90;99.90
2967;DHT22;1493;51.496;7.210;2022-09-09T10:29:28;20.80;99.90
2967;DHT22;1493;51.496;7.210;2022-09-09T10:32:09;20.90;99.90
2967;DHT22;1493;51.496;7.210;2022-09-09T10:34:56;21.30;99.90
2967;DHT22;1493;51.496;7.210;2022-09-09T10:37:48;21.90;99.90
2967;DHT22;1493;51.496;7.210;2022-09-09T10:40:38;22.80;99.90
2967;DHT22;1493;51.496;7.210;2022-09-09T10:43:16;23.40;99.90
2967;DHT22;1493;51.496;7.210;2022-09-09T10:45:55;23.80;99.90
2967;DHT22;1493;51.496;7.210;2022-09-09T10:48:31;23.60;99.90
2967;DHT22;1493;51.496;7.210;2022-09-09T10:51:13;23.10;99.90
2967;DHT22;1493;51.496;7.210;2022-09-09T10:53:51;22.40;99.90
2967;DHT22;1493;51.496;7.210;2022-09-09T10:56:21;22.20;99.90
2967;DHT22;1493;51.496;7.210;2022-09-09T10:58:54;21.80;99.90
2967;DHT22;1493;51.496;7.210;2022-09-09T11:01:28;22.10;99.90
2967;DHT22;1493;51.496;7.210;2022-09-09T11:03:59;22.00;99.90
2967;DHT22;1493;51.496;7.210;2022-09-09T11:06:34;21.90;99.90
2967;DHT22;1493;51.496;7.210;2022-09-09T11:09:05;21.70;99.90
2967;DHT22;1493;51.496;7.210;2022-09-09T11:11:36;21.40;99.90
2967;DHT22;1493;51.496;7.210;2022-09-09T11:14:12;21.30;99.90
2967;DHT22;1493;51.496;7.210;2022-09-09T11:16:46;21.30;99.90
2967;DHT22;1493;51.496;7.210;2022-09-09T11:19:19;21.30;99.90
2967;DHT22;1493;51.496;7.210;2022-09-09T11:21:49;21.00;99.90
2967;DHT22;1493;51.496;7.210;2022-09-09T11:24:21;21.10;99.90
2967;DHT22;1493;51.496;7.210;2022-09-09T11:26:53;21.10;99.90
2967;DHT22;1493;51.496;7.210;2022-09-09T11:32:33;21.40;99.90
2967;DHT22;1493;51.496;7.210;2022-09-09T11:35:12;21.60;99.90
2967;DHT22;1493;51.496;7.210;2022-09-09T11:38:11;22.10;99.90
2967;DHT22;1493;51.496;7.210;2022-09-09T11:40:43;22.50;99.90
2967;DHT22;1493;51.496;7.210;2022-09-09T11:43:13;22.90;99.90
2967;DHT22;1493;51.496;7.210;2022-09-09T11:45:51;22.90;99.90
2967;DHT22;1493;51.496;7.210;2022-09-09T11:48:32;22.60;99.90
2967;DHT22;1493;51.496;7.210;2022-09-09T11:51:03;22.30;99.90
2967;DHT22;1493;51.496;7.210;2022-09-09T11:53:31;21.90;99.90
2967;DHT22;1493;51.496;7.210;2022-09-09T11:56:07;21.80;99.90
2967;DHT22;1493;51.496;7.210;2022-09-09T11:58:40;21.80;99.90
2967;DHT22;1493;51.496;7.210;2022-09-09T12:01:26;21.80;99.90
2967;DHT22;1493;51.496;7.210;2022-09-09T12:04:09;21.50;99.90
2967;DHT22;1493;51.496;7.210;2022-09-09T12:06:45;21.40;99.90
2967;DHT22;1493;51.496;7.210;2022-09-09T12:09:25;21.40;99.90
2967;DHT22;1493;51.496;7.210;2022-09-09T12:12:05;21.50;99.90
2967;DHT22;1493;51.496;7.210;2022-09-09T12:14:37;21.20;99.90
2967;DHT22;1493;51.496;7.210;2022-09-09T12:17:19;21.10;99.90
2967;DHT22;1493;51.496;7.210;2022-09-09T12:19:47;20.90;99.90
2967;DHT22;1493;51.496;7.210;2022-09-09T12:22:22;20.90;99.90
2967;DHT22;1493;51.496;7.210;2022-09-09T12:24:56;20.80;99.90
2967;DHT22;1493;51.496;7.210;2022-09-09T12:27:30;20.80;99.90
2967;DHT22;1493;51.496;7.210;2022-09-09T12:30:03;20.90;99.90
2967;DHT22;1493;51.496;7.210;2022-09-09T12:32:33;21.10;99.90
2967;DHT22;1493;51.496;7.210;2022-09-09T12:35:02;21.10;99.90
2967;DHT22;1493;51.496;7.210;2022-09-09T12:37:34;21.60;99.90
2967;DHT22;1493;51.496;7.210;2022-09-09T12:40:03;21.70;99.90
2967;DHT22;1493;51.496;7.210;2022-09-09T12:42:31;21.60;99.90
2967;DHT22;1493;51.496;7.210;2022-09-09T12:45:00;21.50;99.90
2967;DHT22;1493;51.496;7.210;2022-09-09T12:47:38;21.30;99.90
2967;DHT22;1493;51.496;7.210;2022-09-09T12:50:16;21.10;99.90
2967;DHT22;1493;51.496;7.210;2022-09-09T12:52:44;20.80;99.90
2967;DHT22;1493;51.496;7.210;2022-09-09T12:55:16;20.60;99.90
2967;DHT22;1493;51.496;7.210;2022-09-09T12:57:44;20.60;99.90
2967;DHT22;1493;51.496;7.210;2022-09-09T13:00:15;21.60;99.90
2967;DHT22;1493;51.496;7.210;2022-09-09T13:02:48;22.90;99.90
2967;DHT22;1493;51.496;7.210;2022-09-09T13:05:19;23.80;99.90
2967;DHT22;1493;51.496;7.210;2022-09-09T13:07:46;24.40;99.90
2967;DHT22;1493;51.496;7.210;2022-09-09T13:10:15;25.00;99.90
2967;DHT22;1493;51.496;7.210;2022-09-09T13:12:44;25.50;99.90
2967;DHT22;1493;51.496;7.210;2022-09-09T13:15:17;25.50;99.90
2967;DHT22;1493;51.496;7.210;2022-09-09T13:17:54;25.80;99.90
2967;DHT22;1493;51.496;7.210;2022-09-09T13:20:22;26.40;99.90
2967;DHT22;1493;51.496;7.210;2022-09-09T13:22:51;26.60;99.90
2967;DHT22;1493;51.496;7.210;2022-09-09T13:25:24;26.00;99.90
2967;DHT22;1493;51.496;7.210;2022-09-09T13:27:58;25.30;99.90
2967;DHT22;1493;51.496;7.210;2022-09-09T13:30:29;24.40;99.90
2967;DHT22;1493;51.496;7.210;2022-09-09T13:33:03;23.90;99.90
2967;DHT22;1493;51.496;7.210;2022-09-09T13:35:31;23.50;99.90
2967;DHT22;1493;51.496;7.210;2022-09-09T13:38:07;22.90;99.90
2967;DHT22;1493;51.496;7.210;2022-09-09T13:40:53;22.50;99.90
2967;DHT22;1493;51.496;7.210;2022-09-09T13:43:37;22.20;99.90
2967;DHT22;1493;51.496;7.210;2022-09-09T13:46:29;21.80;99.90
2967;DHT22;1493;51.496;7.210;2022-09-09T13:48:59;21.50;99.90
2967;DHT22;1493;51.496;7.210;2022-09-09T13:51:33;21.10;99.90
2967;DHT22;1493;51.496;7.210;2022-09-09T13:54:00;20.80;99.90
2967;DHT22;1493;51.496;7.210;2022-09-09T13:56:27;20.60;99.90
2967;DHT22;1493;51.496;7.210;2022-09-09T13:58:54;20.00;99.90
2967;DHT22;1493;51.496;7.210;2022-09-09T14:01:23;19.70;99.90
2967;DHT22;1493;51.496;7.210;2022-09-09T14:03:50;19.30;99.90
2967;DHT22;1493;51.496;7.210;2022-09-09T14:06:19;19.00;99.90
2967;DHT22;1493;51.496;7.210;2022-09-09T14:08:58;18.80;99.90
2967;DHT22;1493;51.496;7.210;2022-09-09T14:11:25;18.60;99.90
2967;DHT22;1493;51.496;7.210;2022-09-09T14:13:51;18.40;99.90
2967;DHT22;1493;51.496;7.210;2022-09-09T14:16:18;18.30;99.90
2967;DHT22;1493;51.496;7.210;2022-09-09T14:18:46;18.20;99.90
2967;DHT22;1493;51.496;7.210;2022-09-09T14:21:13;18.20;99.90
2967;DHT22;1493;51.496;7.210;2022-09-09T14:23:42;18.30;99.90
2967;DHT22;1493;51.496;7.210;2022-09-09T14:26:09;18.20;99.90
2967;DHT22;1493;51.496;7.210;2022-09-09T14:28:36;18.40;99.90
2967;DHT22;1493;51.496;7.210;2022-09-09T14:31:05;18.40;99.90
2967;DHT22;1493;51.496;7.210;2022-09-09T14:33:33;18.40;99.90
2967;DHT22;1493;51.496;7.210;2022-09-09T14:36:01;18.50;99.90
2967;DHT22;1493;51.496;7.210;2022-09-09T14:38:30;18.70;99.90
2967;DHT22;1493;51.496;7.210;2022-09-09T14:43:42;18.80;99.90
2967;DHT22;1493;51.496;7.210;2022-09-09T14:46:11;18.80;99.90
2967;DHT22;1493;51.496;7.210;2022-09-09T14:48:38;18.90;99.90
2967;DHT22;1493;51.496;7.210;2022-09-09T14:51:07;18.80;99.90
2967;DHT22;1493;51.496;7.210;2022-09-09T14:53:34;18.90;99.90
2967;DHT22;1493;51.496;7.210;2022-09-09T14:56:06;19.00;99.90
2967;DHT22;1493;51.496;7.210;2022-09-09T14:58:34;19.20;99.90
2967;DHT22;1493;51.496;7.210;2022-09-09T15:01:29;19.30;99.90
2967;DHT22;1493;51.496;7.210;2022-09-09T15:04:02;19.40;99.90
2967;DHT22;1493;51.496;7.210;2022-09-09T15:06:31;19.40;99.90
2967;DHT22;1493;51.496;7.210;2022-09-09T15:08:59;19.60;99.90
2967;DHT22;1493;51.496;7.210;2022-09-09T15:11:27;19.50;99.90
2967;DHT22;1493;51.496;7.210;2022-09-09T15:13:56;19.50;99.90
2967;DHT22;1493;51.496;7.210;2022-09-09T15:16:26;19.30;99.90
2967;DHT22;1493;51.496;7.210;2022-09-09T15:18:55;19.30;99.90
2967;DHT22;1493;51.496;7.210;2022-09-09T15:21:26;19.10;99.90
2967;DHT22;1493;51.496;7.210;2022-09-09T15:23:55;18.80;99.90
2967;DHT22;1493;51.496;7.210;2022-09-09T15:26:24;18.60;99.90
2967;DHT22;1493;51.496;7.210;2022-09-09T15:28:51;18.40;99.90
2967;DHT22;1493;51.496;7.210;2022-09-09T15:31:23;18.20;99.90
2967;DHT22;1493;51.496;7.210;2022-09-09T15:33:55;17.90;99.90
2967;DHT22;1493;51.496;7.210;2022-09-09T15:36:29;17.70;99.90
2967;DHT22;1493;51.496;7.210;2022-09-09T15:38:58;17.40;99.90
2967;DHT22;1493;51.496;7.210;2022-09-09T15:41:25;17.30;99.90
2967;DHT22;1493;51.496;7.210;2022-09-09T15:43:56;17.20;99.90
2967;DHT22;1493;51.496;7.210;2022-09-09T15:46:38;17.00;99.90
2967;DHT22;1493;51.496;7.210;2022-09-09T15:49:11;17.00;99.90
2967;DHT22;1493;51.496;7.210;2022-09-09T15:51:41;16.80;99.90
2967;DHT22;1493;51.496;7.210;2022-09-09T15:54:12;16.90;99.90
2967;DHT22;1493;51.496;7.210;2022-09-09T15:56:44;16.90;99.90
2967;DHT22;1493;51.496;7.210;2022-09-09T15:59:11;16.90;99.90
2967;DHT22;1493;51.496;7.210;2022-09-09T16:01:43;16.80;99.90
2967;DHT22;1493;51.496;7.210;2022-09-09T16:04:13;16.80;99.90
2967;DHT22;1493;51.496;7.210;2022-09-09T16:06:49;16.90;99.90
2967;DHT22;1493;51.496;7.210;2022-09-09T16:09:15;16.90;99.90
2967;DHT22;1493;51.496;7.210;2022-09-09T16:11:42;16.90;99.90
2967;DHT22;1493;51.496;7.210;2022-09-09T16:14:09;16.90;99.90
2967;DHT22;1493;51.496;7.210;2022-09-09T16:16:36;16.80;99.90
2967;DHT22;1493;51.496;7.210;2022-09-09T16:19:05;16.90;99.90
2967;DHT22;1493;51.496;7.210;2022-09-09T16:21:43;16.90;99.90
2967;DHT22;1493;51.496;7.210;2022-09-09T16:24:20;17.00;99.90
2967;DHT22;1493;51.496;7.210;2022-09-09T16:26:53;17.10;99.90
2967;DHT22;1493;51.496;7.210;2022-09-09T16:29:22;17.20;99.90
2967;DHT22;1493;51.496;7.210;2022-09-09T16:31:53;17.20;99.90
2967;DHT22;1493;51.496;7.210;2022-09-09T16:34:20;17.20;99.90
2967;DHT22;1493;51.496;7.210;2022-09-09T16:36:55;17.20;99.90